Time;durP1;ratioP1;P1;durP2;ratioP2;P2;SDS_P1;SDS_P2;PMS_P1;PMS_P2;Temp;Humidity;BMP_temperature;BMP_pressure;BME280_temperature;BME280_humidity;BME280_pressure;Samples;Min_cycle;Max_cycle;Signal;HPM_P1;HPM_P2
2024/01/25 00:01:21;;;;;;;83.00;77.63;;;;;;;11.13;66.53;102756.66;5040552;28;20068;-73
2024/01/25 00:03:46;;;;;;;83.07;77.50;;;;;;;11.12;66.30;102763.13;5043523;28;20045;-72
2024/01/25 00:06:12;;;;;;;79.40;75.03;;;;;;;11.12;66.64;102765.00;5036383;28;20055;-72
2024/01/25 00:08:37;;;;;;;84.90;79.82;;;;;;;11.11;66.37;102761.44;5040206;28;20076;-72
2024/01/25 00:11:03;;;;;;;78.90;74.68;;;;;;;11.10;66.68;102754.38;5031669;28;20104;-72
2024/01/25 00:13:29;;;;;;;83.72;78.45;;;;;;;11.10;66.64;102756.25;5032773;28;20034;-72
2024/01/25 00:15:54;;;;;;;80.85;76.63;;;;;;;11.10;66.52;102761.66;5035269;28;20068;-74
2024/01/25 00:18:20;;;;;;;79.13;75.60;;;;;;;11.10;66.56;102769.75;5033708;28;20223;-72
2024/01/25 00:20:45;;;;;;;83.28;77.57;;;;;;;11.08;66.58;102769.94;5050230;28;20033;-73
2024/01/25 00:23:11;;;;;;;83.57;78.10;;;;;;;11.05;66.74;102749.53;5031348;28;20493;-72
2024/01/25 00:25:36;;;;;;;80.50;76.82;;;;;;;11.05;66.59;102751.41;5043838;28;20044;-72
2024/01/25 00:28:02;;;;;;;81.53;76.05;;;;;;;11.04;66.74;102768.69;5049897;28;20041;-72
2024/01/25 00:30:27;;;;;;;82.80;78.30;;;;;;;11.04;66.71;102768.69;5035549;28;20029;-72
2024/01/25 00:32:53;;;;;;;82.47;76.90;;;;;;;11.04;66.66;102760.56;5013674;28;20179;-72
2024/01/25 00:35:18;;;;;;;84.75;79.80;;;;;;;11.02;66.78;102755.34;5031134;28;20038;-72
2024/01/25 00:37:44;;;;;;;77.78;74.10;;;;;;;11.02;66.65;102749.94;5047175;28;20106;-73
2024/01/25 00:40:13;;;;;;;82.15;76.43;;;;;;;11.02;66.80;102754.53;5041254;28;20041;-72
2024/01/25 00:42:42;;;;;;;80.95;76.75;;;;;;;11.01;66.96;102750.97;5031332;28;20029;-72
2024/01/25 00:45:08;;;;;;;81.63;75.72;;;;;;;11.01;66.67;102750.13;5053960;28;20129;-72
2024/01/25 00:47:34;;;;;;;77.05;72.93;;;;;;;11.00;66.40;102754.69;5036429;28;20472;-71
2024/01/25 00:50:00;;;;;;;78.75;73.90;;;;;;;10.98;66.69;102743.25;5035041;28;20037;-72
2024/01/25 00:52:26;;;;;;;79.80;75.97;;;;;;;10.98;66.70;102734.28;5031146;28;20034;-72
2024/01/25 00:54:51;;;;;;;76.43;72.20;;;;;;;10.96;66.58;102742.63;5031277;28;20042;-72
2024/01/25 00:57:17;;;;;;;82.35;77.82;;;;;;;10.96;66.79;102748.03;5032586;28;20482;-73
2024/01/25 00:59:43;;;;;;;83.03;77.28;;;;;;;10.96;66.60;102758.00;5032275;28;20037;-72
2024/01/25 01:02:12;;;;;;;81.40;76.60;;;;;;;10.95;66.76;102751.75;5045670;28;20124;-72
2024/01/25 01:04:39;;;;;;;77.80;73.78;;;;;;;10.95;66.81;102749.06;5040303;28;20065;-72
2024/01/25 01:07:05;;;;;;;77.20;73.22;;;;;;;10.95;66.89;102761.75;5041977;28;20037;-75
2024/01/25 01:09:30;;;;;;;78.63;74.93;;;;;;;10.94;66.83;102766.31;5040092;28;20385;-72
2024/01/25 01:11:55;;;;;;;77.35;73.10;;;;;;;10.94;66.85;102763.63;5038253;28;20033;-72
2024/01/25 01:14:21;;;;;;;81.18;77.05;;;;;;;10.94;66.63;102773.59;5050186;28;20033;-72
2024/01/25 01:16:46;;;;;;;81.82;77.32;;;;;;;10.94;66.50;102770.91;5034366;28;20044;-72
2024/01/25 01:19:12;;;;;;;79.07;74.55;;;;;;;10.93;66.85;102763.78;5034142;28;20033;-72
2024/01/25 01:21:38;;;;;;;81.13;76.78;;;;;;;10.91;66.61;102765.84;5034995;28;20430;-73
2024/01/25 01:24:04;;;;;;;81.20;76.57;;;;;;;10.88;66.76;102771.66;5051604;28;20033;-73
2024/01/25 01:26:30;;;;;;;79.72;75.45;;;;;;;10.87;66.53;102778.09;5039937;28;20189;-72
2024/01/25 01:28:55;;;;;;;77.93;74.32;;;;;;;10.87;66.72;102778.09;5049545;28;20045;-73
2024/01/25 01:31:21;;;;;;;82.57;77.53;;;;;;;10.87;66.81;102780.81;5038933;28;20037;-72
2024/01/25 01:33:46;;;;;;;82.80;77.43;;;;;;;10.86;66.63;102785.38;5028457;28;20037;-72
2024/01/25 01:36:12;;;;;;;79.45;75.22;;;;;;;10.86;66.63;102792.63;5049540;28;20037;-72
2024/01/25 01:38:37;;;;;;;80.75;76.00;;;;;;;10.85;66.74;102790.97;5034524;28;20057;-72
2024/01/25 01:41:03;;;;;;;79.93;74.97;;;;;;;10.85;66.62;102794.50;5035048;28;20041;-72
2024/01/25 01:43:28;;;;;;;75.68;71.18;;;;;;;10.84;66.82;102782.03;5048416;28;20037;-71
2024/01/25 01:46:00;;;;;;;78.88;74.63;;;;;;;10.83;66.72;102781.22;5034837;28;20111;-71
2024/01/25 01:48:26;;;;;;;80.88;76.88;;;;;;;10.82;66.77;102784.09;5034384;28;20025;-72
2024/01/25 01:50:51;;;;;;;76.85;71.85;;;;;;;10.81;66.54;102788.66;5050819;28;20036;-72
2024/01/25 01:53:17;;;;;;;82.85;78.38;;;;;;;10.80;66.54;102791.56;5040118;28;20370;-72
2024/01/25 01:55:43;;;;;;;80.78;76.93;;;;;;;10.78;66.72;102791.75;5036607;28;20512;-71
2024/01/25 01:58:09;;;;;;;78.40;74.05;;;;;;;10.77;66.49;102794.66;5032679;28;20032;-72
2024/01/25 02:00:37;;;;;;;81.03;77.00;;;;;;;10.77;66.70;102803.59;5034958;28;20362;-71
2024/01/25 02:03:03;;;;;;;77.10;72.73;;;;;;;10.76;66.69;102804.63;5041186;28;20425;-72
2024/01/25 02:05:28;;;;;;;77.22;72.63;;;;;;;10.75;66.65;102800.25;5033604;28;20300;-72
2024/01/25 02:07:54;;;;;;;78.00;74.18;;;;;;;10.74;66.51;102803.16;5059558;28;20461;-72
2024/01/25 02:10:20;;;;;;;76.50;72.75;;;;;;;10.73;66.86;102826.63;5045130;28;20120;-71
2024/01/25 02:12:45;;;;;;;74.57;70.93;;;;;;;10.73;66.69;102825.78;5044333;28;20495;-73
2024/01/25 02:15:10;;;;;;;76.32;72.15;;;;;;;10.73;66.55;102820.38;5052245;28;20040;-72
2024/01/25 02:17:36;;;;;;;78.65;74.20;;;;;;;10.71;66.48;102833.25;5052378;28;20473;-73
2024/01/25 02:20:03;;;;;;;78.72;74.65;;;;;;;10.69;66.63;102838.88;5047585;28;20033;-73
2024/01/25 02:22:28;;;;;;;78.30;74.50;;;;;;;10.67;66.45;102838.22;5034575;28;20046;-73
2024/01/25 02:24:54;;;;;;;77.78;73.55;;;;;;;10.67;66.70;102834.69;5051736;28;20044;-72
2024/01/25 02:27:19;;;;;;;81.97;76.90;;;;;;;10.65;66.80;102832.16;5046010;28;20335;-72
2024/01/25 02:29:45;;;;;;;78.72;75.00;;;;;;;10.63;66.51;102833.38;5032587;28;20470;-72
2024/01/25 02:32:10;;;;;;;79.38;75.03;;;;;;;10.61;66.42;102842.53;5047488;28;20025;-72
2024/01/25 02:34:36;;;;;;;78.18;72.43;;;;;;;10.60;66.57;102843.53;5033151;28;20034;-72
2024/01/25 02:37:01;;;;;;;77.30;73.72;;;;;;;10.60;66.37;102835.44;5033619;28;20476;-72
2024/01/25 02:39:26;;;;;;;75.65;72.15;;;;;;;10.59;66.44;102838.34;5033389;28;20087;-72
2024/01/25 02:41:52;;;;;;;76.88;72.70;;;;;;;10.58;66.54;102845.63;5033234;28;20468;-73
2024/01/25 02:44:17;;;;;;;76.00;72.05;;;;;;;10.57;66.77;102843.94;5033900;28;20407;-72
2024/01/25 02:46:44;;;;;;;77.35;73.72;;;;;;;10.56;66.45;102841.44;5039544;28;20041;-72
2024/01/25 02:49:10;;;;;;;77.90;74.25;;;;;;;10.55;66.38;102842.44;5047551;28;20029;-72
2024/01/25 02:51:36;;;;;;;78.18;74.38;;;;;;;10.53;66.42;102845.34;5032850;28;20113;-74
2024/01/25 02:54:01;;;;;;;80.43;75.13;;;;;;;10.52;66.55;102843.66;5033615;28;20033;-72
2024/01/25 02:56:33;;;;;;;76.82;72.15;;;;;;;10.51;66.53;102852.81;5033116;28;20513;-72
2024/01/25 02:58:59;;;;;;;74.85;71.03;;;;;;;10.49;66.58;102849.47;5033189;28;20052;-72
2024/01/25 03:01:24;;;;;;;74.90;71.38;;;;;;;10.48;66.59;102841.53;5034627;28;20049;-72
2024/01/25 03:03:49;;;;;;;73.38;69.97;;;;;;;10.47;66.64;102847.97;5032496;28;20037;-74
2024/01/25 03:06:15;;;;;;;78.78;74.82;;;;;;;10.46;66.48;102851.69;5035710;28;20110;-72
2024/01/25 03:08:40;;;;;;;73.95;70.45;;;;;;;10.45;66.45;102847.31;5035297;28;20033;-72
2024/01/25 03:11:06;;;;;;;73.80;70.18;;;;;;;10.44;66.46;102838.38;5033369;28;20033;-72
2024/01/25 03:13:31;;;;;;;76.75;73.25;;;;;;;10.42;66.53;102843.13;5032093;28;20037;-72
2024/01/25 03:15:57;;;;;;;75.70;72.10;;;;;;;10.40;66.46;102843.31;5043247;28;20037;-72
2024/01/25 03:18:23;;;;;;;72.53;68.80;;;;;;;10.38;66.46;102840.00;5052004;28;20083;-72
2024/01/25 03:20:50;;;;;;;73.57;70.22;;;;;;;10.37;66.51;102827.50;5050777;28;20033;-73
2024/01/25 03:23:16;;;;;;;77.83;73.33;;;;;;;10.35;66.48;102826.84;5043584;28;20523;-72
2024/01/25 03:25:42;;;;;;;75.88;72.38;;;;;;;10.33;66.64;102825.34;5039183;28;20029;-73
2024/01/25 03:28:09;;;;;;;75.47;70.25;;;;;;;10.31;66.65;102828.25;5032250;28;20072;-73
2024/01/25 03:30:34;;;;;;;78.53;74.38;;;;;;;10.31;66.48;102832.84;5033393;28;20028;-72
2024/01/25 03:33:00;;;;;;;75.30;71.95;;;;;;;10.30;66.45;102825.75;5040331;28;20037;-72
2024/01/25 03:35:26;;;;;;;77.22;73.32;;;;;;;10.28;66.38;102828.66;5051534;28;20033;-73
2024/01/25 03:37:51;;;;;;;75.50;71.28;;;;;;;10.27;66.53;102831.50;5035924;28;20029;-73
2024/01/25 03:40:17;;;;;;;72.00;68.55;;;;;;;10.26;66.46;102838.78;5032611;28;20029;-72
2024/01/25 03:42:42;;;;;;;75.45;71.70;;;;;;;10.25;66.29;102842.47;5040666;28;20492;-74
2024/01/25 03:45:08;;;;;;;77.18;73.47;;;;;;;10.23;66.09;102839.16;5034162;28;20090;-72
2024/01/25 03:47:33;;;;;;;76.20;72.25;;;;;;;10.22;66.56;102842.03;5048135;28;20521;-72
2024/01/25 03:49:59;;;;;;;78.13;72.43;;;;;;;10.20;66.30;102834.09;5035496;28;20028;-72
2024/01/25 03:52:25;;;;;;;77.40;73.80;;;;;;;10.18;66.32;102842.41;5040328;28;20049;-72
2024/01/25 03:54:50;;;;;;;69.93;66.63;;;;;;;10.17;66.58;102845.28;5030723;28;20486;-73
2024/01/25 03:57:16;;;;;;;69.50;66.30;;;;;;;10.15;66.26;102850.03;5047944;28;20037;-72
2024/01/25 03:59:41;;;;;;;72.38;67.82;;;;;;;10.13;66.49;102846.69;5048396;28;20110;-72
2024/01/25 04:02:07;;;;;;;74.68;70.97;;;;;;;10.10;66.55;102842.50;5050092;28;20040;-73
2024/01/25 04:04:32;;;;;;;72.57;69.18;;;;;;;10.09;66.53;102848.94;5050019;28;20033;-73
2024/01/25 04:06:57;;;;;;;74.32;70.30;;;;;;;10.09;66.26;102856.22;5031779;28;20421;-72
2024/01/25 04:09:23;;;;;;;76.53;73.03;;;;;;;10.06;66.35;102846.63;5038824;28;20397;-73
2024/01/25 04:11:48;;;;;;;67.10;63.88;;;;;;;10.05;66.36;102844.09;5036465;28;20466;-72
2024/01/25 04:14:15;;;;;;;71.80;68.60;;;;;;;10.02;66.32;102845.31;5037328;28;20386;-73
2024/01/25 04:16:41;;;;;;;73.75;68.30;;;;;;;10.01;66.45;102846.34;5031420;28;20033;-72
2024/01/25 04:19:06;;;;;;;71.72;68.22;;;;;;;10.00;66.34;102844.66;5054137;28;20033;-72
2024/01/25 04:21:32;;;;;;;74.05;69.70;;;;;;;9.98;66.58;102835.91;5042023;28;20037;-72
2024/01/25 04:23:57;;;;;;;73.55;69.72;;;;;;;9.96;66.40;102835.25;5031981;28;20428;-72
2024/01/25 04:26:23;;;;;;;73.32;69.35;;;;;;;9.94;66.49;102834.63;5042125;28;20037;-73
2024/01/25 04:28:49;;;;;;;75.82;72.10;;;;;;;9.93;66.38;102832.94;5031599;28;20067;-73
2024/01/25 04:31:14;;;;;;;74.45;70.78;;;;;;;9.92;66.65;102847.44;5032859;28;20125;-71
2024/01/25 04:33:40;;;;;;;70.07;66.57;;;;;;;9.90;66.46;102844.09;5036093;28;20034;-72
2024/01/25 04:36:06;;;;;;;69.13;66.03;;;;;;;9.88;66.35;102852.41;5045132;28;20037;-73
2024/01/25 04:38:31;;;;;;;71.55;68.05;;;;;;;9.87;66.42;102853.41;5034524;28;20041;-71
2024/01/25 04:40:56;;;;;;;67.97;64.00;;;;;;;9.86;66.46;102848.22;5034564;28;20040;-73
2024/01/25 04:43:22;;;;;;;73.70;69.10;;;;;;;9.85;66.52;102849.22;5038025;28;20025;-72
2024/01/25 04:45:47;;;;;;;69.57;66.35;;;;;;;9.84;66.30;102844.84;5043856;28;20389;-72
2024/01/25 04:48:13;;;;;;;71.82;68.32;;;;;;;9.83;66.45;102838.63;5035611;28;20073;-73
2024/01/25 04:50:39;;;;;;;74.63;71.13;;;;;;;9.80;66.15;102836.28;5035115;28;20057;-73
2024/01/25 04:53:04;;;;;;;73.28;69.25;;;;;;;9.80;66.38;102840.84;5056835;28;20466;-72
2024/01/25 04:55:30;;;;;;;67.28;63.50;;;;;;;9.78;66.46;102849.13;5054026;28;20086;-72
2024/01/25 04:57:55;;;;;;;75.20;71.80;;;;;;;9.77;66.28;102844.75;5043079;28;20029;-72
2024/01/25 05:00:22;;;;;;;65.78;62.70;;;;;;;9.76;66.43;102837.69;5038116;28;20037;-73
2024/01/25 05:02:48;;;;;;;68.47;65.38;;;;;;;9.74;66.59;102834.34;5040024;28;20859;-72
2024/01/25 05:05:14;;;;;;;68.47;65.38;;;;;;;9.71;66.15;102832.84;5034509;28;20467;-72
2024/01/25 05:07:40;;;;;;;69.13;65.47;;;;;;;9.72;66.26;102847.16;5045385;28;20045;-73
2024/01/25 05:10:06;;;;;;;66.97;63.67;;;;;;;9.70;66.21;102843.81;5054887;28;20043;-74
2024/01/25 05:12:31;;;;;;;69.07;65.80;;;;;;;9.69;66.39;102848.38;5032585;28;20037;-72
2024/01/25 05:14:58;;;;;;;71.38;67.55;;;;;;;9.68;66.38;102844.00;5035207;28;20485;-72
2024/01/25 05:17:23;;;;;;;71.63;68.20;;;;;;;9.66;66.23;102837.13;5035234;28;20041;-72
2024/01/25 05:19:48;;;;;;;75.78;71.35;;;;;;;9.64;66.27;102831.91;5035092;28;20036;-71
2024/01/25 05:22:14;;;;;;;66.72;63.42;;;;;;;9.64;66.32;102833.78;5034954;28;20060;-71
2024/01/25 05:24:39;;;;;;;65.07;61.97;;;;;;;9.61;66.37;102840.38;5034688;28;20026;-71
2024/01/25 05:27:05;;;;;;;68.50;65.13;;;;;;;9.61;66.31;102842.25;5035070;28;20378;-72
2024/01/25 05:29:30;;;;;;;71.40;67.40;;;;;;;9.59;66.43;102839.72;5034514;28;20064;-76
2024/01/25 05:31:56;;;;;;;67.60;64.20;;;;;;;9.58;66.43;102850.72;5055589;28;20055;-72
2024/01/25 05:34:21;;;;;;;73.65;68.68;;;;;;;9.57;66.51;102846.31;5054231;28;20133;-71
2024/01/25 05:36:47;;;;;;;67.25;63.85;;;;;;;9.56;66.28;102847.34;5067203;28;20065;-72
2024/01/25 05:39:13;;;;;;;67.05;63.67;;;;;;;9.54;66.44;102856.44;5045923;28;20044;-72
2024/01/25 05:41:39;;;;;;;74.13;69.95;;;;;;;9.52;66.23;102858.53;5048776;28;20091;-72
2024/01/25 05:44:04;;;;;;;66.68;63.55;;;;;;;9.51;66.36;102859.53;5034630;28;20121;-71
2024/01/25 05:46:29;;;;;;;64.10;60.85;;;;;;;9.50;66.35;102849.75;5034733;28;20108;-74
2024/01/25 05:48:55;;;;;;;70.85;66.43;;;;;;;9.50;66.38;102851.63;5051321;28;20397;-72
2024/01/25 05:51:20;;;;;;;67.60;64.50;;;;;;;9.47;66.20;102843.88;5053870;28;20112;-71
2024/01/25 05:53:46;;;;;;;70.00;65.72;;;;;;;9.46;66.21;102842.22;5051995;28;20037;-72
2024/01/25 05:56:11;;;;;;;65.57;62.50;;;;;;;9.45;66.20;102846.78;5034572;28;20116;-74
2024/01/25 05:58:37;;;;;;;70.82;66.43;;;;;;;9.43;66.30;102853.38;5032586;28;20034;-72
2024/01/25 06:01:02;;;;;;;66.68;61.72;;;;;;;9.43;66.25;102856.09;5034264;28;20080;-71
2024/01/25 06:03:28;;;;;;;67.57;64.18;;;;;;;9.42;66.11;102851.69;5033854;28;20033;-72
2024/01/25 06:05:53;;;;;;;64.75;61.75;;;;;;;9.40;66.31;102853.72;5044918;28;20156;-73
2024/01/25 06:08:19;;;;;;;67.28;63.78;;;;;;;9.36;66.26;102845.19;5038441;28;20037;-71
2024/01/25 06:10:44;;;;;;;66.82;63.67;;;;;;;9.35;66.23;102854.31;5033269;28;20029;-72
2024/01/25 06:13:09;;;;;;;68.07;64.65;;;;;;;9.32;66.39;102858.19;5042949;28;20033;-72
2024/01/25 06:15:35;;;;;;;67.97;64.88;;;;;;;9.32;66.34;102846.56;5023676;28;20132;-74
2024/01/25 06:18:00;;;;;;;67.00;63.75;;;;;;;9.31;66.31;102858.38;5047543;28;20060;-72
2024/01/25 06:20:25;;;;;;;68.53;65.05;;;;;;;9.29;66.33;102858.53;5045050;28;20034;-72
2024/01/25 06:22:51;;;;;;;71.82;67.95;;;;;;;9.29;66.37;102863.94;5035954;28;20037;-73
2024/01/25 06:25:16;;;;;;;70.65;66.40;;;;;;;9.27;66.16;102863.31;5045952;28;20026;-72
2024/01/25 06:27:42;;;;;;;61.30;58.28;;;;;;;9.26;66.33;102860.78;5032252;28;20061;-73
2024/01/25 06:30:07;;;;;;;63.40;60.28;;;;;;;9.25;66.21;102867.19;5041652;28;20470;-73
2024/01/25 06:32:33;;;;;;;64.60;61.60;;;;;;;9.24;66.18;102877.13;5034094;28;20060;-74
2024/01/25 06:34:59;;;;;;;64.10;61.10;;;;;;;9.22;66.13;102872.94;5033101;28;20026;-74
2024/01/25 06:37:24;;;;;;;64.30;61.25;;;;;;;9.21;66.15;102866.72;5032270;28;20041;-72
2024/01/25 06:39:49;;;;;;;68.00;64.85;;;;;;;9.19;66.26;102865.22;5034952;28;20038;-71
2024/01/25 06:42:15;;;;;;;63.08;60.25;;;;;;;9.17;66.01;102873.50;5033642;28;20386;-71
2024/01/25 06:44:40;;;;;;;68.13;64.32;;;;;;;9.17;66.25;102869.94;5033143;28;20102;-71
2024/01/25 06:47:06;;;;;;;63.08;59.35;;;;;;;9.15;66.14;102864.75;5033663;28;20378;-72
2024/01/25 06:49:31;;;;;;;62.03;59.13;;;;;;;9.14;66.16;102854.13;5048881;28;20037;-71
2024/01/25 06:51:57;;;;;;;68.20;64.15;;;;;;;9.12;66.36;102861.56;5047486;28;20037;-73
2024/01/25 06:54:22;;;;;;;65.72;62.72;;;;;;;9.10;66.24;102865.28;5033047;28;20445;-71
2024/01/25 06:56:47;;;;;;;63.58;60.58;;;;;;;9.09;66.26;102868.16;5031291;28;20037;-71
2024/01/25 06:59:13;;;;;;;69.13;65.80;;;;;;;9.05;65.91;102866.84;5054818;28;20160;-70
2024/01/25 07:01:38;;;;;;;65.18;61.65;;;;;;;9.02;66.07;102869.88;5049823;28;20037;-72
2024/01/25 07:04:04;;;;;;;62.25;59.25;;;;;;;9.00;66.09;102875.47;5038371;28;20078;-71
2024/01/25 07:06:30;;;;;;;63.08;60.08;;;;;;;9.00;66.03;102883.56;5036222;28;20051;-72
2024/01/25 07:08:55;;;;;;;68.88;63.95;;;;;;;8.98;66.10;102874.81;5038668;28;20045;-70
2024/01/25 07:11:21;;;;;;;67.32;64.03;;;;;;;8.98;66.14;102872.13;5033048;28;20465;-69
2024/01/25 07:13:46;;;;;;;66.30;63.17;;;;;;;8.97;66.25;102872.28;5042657;28;20078;-72
2024/01/25 07:16:12;;;;;;;69.38;65.38;;;;;;;8.96;66.04;102868.75;5035172;28;20040;-72
2024/01/25 07:18:37;;;;;;;61.13;58.30;;;;;;;8.94;65.90;102870.78;5047423;28;20041;-72
2024/01/25 07:21:03;;;;;;;62.85;59.63;;;;;;;8.92;65.95;102878.25;5046746;28;20121;-71
2024/01/25 07:23:30;;;;;;;64.47;60.05;;;;;;;8.91;65.87;102889.19;5047177;28;20052;-72
2024/01/25 07:25:55;;;;;;;64.07;60.58;;;;;;;8.90;65.92;102887.53;5036681;28;20429;-72
2024/01/25 07:28:21;;;;;;;63.72;60.58;;;;;;;8.89;65.89;102886.66;5035812;28;20046;-73
2024/01/25 07:30:47;;;;;;;65.28;62.03;;;;;;;8.88;66.04;102890.38;5032225;28;20038;-72
2024/01/25 07:33:13;;;;;;;62.67;59.67;;;;;;;8.86;66.04;102895.94;5037166;28;20039;-74
2024/01/25 07:35:45;;;;;;;60.67;57.58;;;;;;;8.86;66.04;102895.94;5035630;28;20029;-71
2024/01/25 07:38:11;;;;;;;58.78;55.95;;;;;;;8.86;66.00;102887.84;5050323;28;20025;-70
2024/01/25 07:40:36;;;;;;;64.13;59.20;;;;;;;8.84;66.14;102887.22;5046491;28;20029;-71
2024/01/25 07:43:02;;;;;;;62.83;59.83;;;;;;;8.83;66.02;102893.63;5037403;28;20405;-70
2024/01/25 07:45:27;;;;;;;60.92;58.03;;;;;;;8.82;66.01;102896.47;5044304;28;20056;-72
2024/01/25 07:47:53;;;;;;;64.28;61.10;;;;;;;8.81;65.96;102901.03;5031809;28;20037;-72
2024/01/25 07:50:18;;;;;;;63.53;60.45;;;;;;;8.80;66.06;102893.13;5032458;28;20025;-72
2024/01/25 07:52:43;;;;;;;60.33;57.42;;;;;;;8.78;66.00;102885.22;5036571;28;20474;-71
2024/01/25 07:55:09;;;;;;;60.95;58.15;;;;;;;8.76;66.02;102881.88;5044112;28;20040;-73
2024/01/25 07:57:34;;;;;;;58.97;55.83;;;;;;;8.75;66.03;102874.81;5050265;28;20040;-71
2024/01/25 08:00:00;;;;;;;62.45;59.30;;;;;;;8.73;66.29;102878.69;5035500;28;20033;-74
2024/01/25 08:02:25;;;;;;;61.58;58.42;;;;;;;8.71;66.31;102878.03;5033847;28;20036;-73
2024/01/25 08:04:50;;;;;;;62.45;59.25;;;;;;;8.69;66.14;102883.59;5043420;28;20033;-72
2024/01/25 08:07:16;;;;;;;62.58;58.80;;;;;;;8.68;66.13;102897.25;5040343;28;20084;-72
2024/01/25 08:09:42;;;;;;;60.92;57.58;;;;;;;8.68;66.18;102897.25;5030573;28;20029;-71
2024/01/25 08:12:08;;;;;;;63.17;60.08;;;;;;;8.66;66.26;102887.47;5032097;28;20068;-72
2024/01/25 08:14:33;;;;;;;58.58;55.85;;;;;;;8.66;66.32;102855.16;5046192;28;20118;-71
2024/01/25 08:16:59;;;;;;;67.82;63.40;;;;;;;8.66;66.13;102876.69;5040040;28;20041;-72
2024/01/25 08:19:25;;;;;;;64.07;61.08;;;;;;;8.65;66.17;102879.59;5051713;28;20102;-72
2024/01/25 08:21:50;;;;;;;66.10;62.60;;;;;;;8.64;66.03;102857.19;5031902;28;20126;-72
2024/01/25 08:24:16;;;;;;;59.63;56.38;;;;;;;8.64;66.18;102872.50;5030851;28;20052;-72
2024/01/25 08:26:41;;;;;;;63.63;57.58;;;;;;;8.63;66.32;102870.84;5042849;28;20043;-71
2024/01/25 08:29:07;;;;;;;62.65;59.72;;;;;;;8.61;66.25;102886.34;5045256;28;20047;-73
2024/01/25 08:31:32;;;;;;;55.63;53.10;;;;;;;8.60;66.18;102888.19;5033180;28;20029;-72
2024/01/25 08:33:57;;;;;;;62.28;58.85;;;;;;;8.59;66.33;102899.13;5034118;28;20462;-71
2024/01/25 08:36:24;;;;;;;61.90;58.90;;;;;;;8.57;66.42;102888.56;5048184;28;20117;-72
2024/01/25 08:38:50;;;;;;;60.35;56.47;;;;;;;8.57;66.21;102877.78;5046041;28;20037;-72
2024/01/25 08:41:16;;;;;;;63.58;59.03;;;;;;;8.57;66.28;102885.03;5031616;28;20049;-72
2024/01/25 08:43:42;;;;;;;59.45;56.47;;;;;;;8.56;66.22;102878.78;5050391;28;20033;-72
2024/01/25 08:46:08;;;;;;;60.38;57.28;;;;;;;8.57;66.31;102891.25;5040735;28;20045;-74
2024/01/25 08:48:33;;;;;;;63.78;59.33;;;;;;;8.56;66.15;102894.94;5041607;28;20128;-74
2024/01/25 08:50:59;;;;;;;65.03;61.47;;;;;;;8.56;66.24;102891.41;5032628;28;20113;-72
2024/01/25 08:53:27;;;;;;;61.33;58.40;;;;;;;8.55;66.26;102890.59;5031337;28;20470;-72
2024/01/25 08:55:53;;;;;;;58.92;55.80;;;;;;;8.55;66.31;102881.66;5044605;28;20543;-73
2024/01/25 08:58:19;;;;;;;59.00;55.53;;;;;;;8.53;66.43;102878.31;5048994;28;20060;-73
2024/01/25 09:00:44;;;;;;;60.17;57.00;;;;;;;8.52;66.36;102882.03;5048648;28;20033;-71
2024/01/25 09:03:09;;;;;;;59.40;55.58;;;;;;;8.52;66.36;102887.41;5034647;28;20438;-71
2024/01/25 09:05:39;;;;;;;61.78;58.53;;;;;;;8.49;66.18;102872.41;5048813;28;20128;-73
2024/01/25 09:08:05;;;;;;;61.10;57.75;;;;;;;8.50;66.41;102878.66;5023179;28;20029;-72
2024/01/25 09:10:30;;;;;;;59.08;55.22;;;;;;;8.50;66.44;102890.28;5045543;28;20068;-71
2024/01/25 09:12:55;;;;;;;60.38;57.15;;;;;;;8.50;66.36;102894.81;5039868;28;20033;-75
2024/01/25 09:15:21;;;;;;;57.70;54.78;;;;;;;8.50;66.27;102892.97;5046257;28;20473;-73
2024/01/25 09:17:46;;;;;;;63.08;58.83;;;;;;;8.49;66.34;102883.19;5038591;28;20480;-73
2024/01/25 09:20:12;;;;;;;59.53;55.30;;;;;;;8.50;66.24;102892.97;5041162;28;20069;-72
2024/01/25 09:22:37;;;;;;;58.83;55.80;;;;;;;8.49;66.51;102899.34;5044148;28;20531;-72
2024/01/25 09:25:04;;;;;;;63.17;59.42;;;;;;;8.49;66.46;102893.13;5036267;28;20444;-72
2024/01/25 09:27:29;;;;;;;58.83;55.50;;;;;;;8.47;66.47;102884.38;5046823;28;20120;-72
2024/01/25 09:29:55;;;;;;;66.07;60.90;;;;;;;8.45;66.42;102882.72;5039151;28;20434;-76
2024/01/25 09:32:20;;;;;;;62.25;57.25;;;;;;;8.44;66.42;102881.06;5048353;28;20495;-72
2024/01/25 09:34:46;;;;;;;62.88;58.35;;;;;;;8.45;66.30;102887.28;5046442;28;20037;-74
2024/01/25 09:37:11;;;;;;;69.03;64.45;;;;;;;8.45;66.26;102895.34;5042943;28;20389;-74
2024/01/25 09:39:37;;;;;;;62.60;59.40;;;;;;;8.44;66.48;102902.59;5064885;28;20071;-73
2024/01/25 09:42:05;;;;;;;60.80;56.38;;;;;;;8.45;66.43;102898.88;5032915;28;20478;-75
2024/01/25 09:44:31;;;;;;;65.38;61.45;;;;;;;8.45;66.32;102898.88;5034450;28;20021;-72
2024/01/25 09:46:57;;;;;;;59.97;56.97;;;;;;;8.45;66.20;102898.03;5039183;28;20550;-75
2024/01/25 09:49:23;;;;;;;58.85;54.40;;;;;;;8.45;66.36;102898.03;5036585;28;20036;-72
2024/01/25 09:51:51;;;;;;;60.15;56.90;;;;;;;8.46;66.39;102891.63;5033217;28;20053;-73
2024/01/25 09:54:16;;;;;;;65.45;61.42;;;;;;;8.44;66.64;102889.13;5061265;28;20035;-73
2024/01/25 09:56:42;;;;;;;65.53;60.85;;;;;;;8.45;66.49;102890.78;5052018;28;20048;-73
2024/01/25 09:59:08;;;;;;;65.75;62.53;;;;;;;8.45;66.60;102884.56;5050383;28;20435;-71
2024/01/25 10:01:34;;;;;;;61.97;58.63;;;;;;;8.43;66.52;102882.03;5050981;28;20508;-72
2024/01/25 10:03:59;;;;;;;62.67;58.17;;;;;;;8.44;66.44;102888.25;5051736;28;20025;-72
2024/01/25 10:06:25;;;;;;;68.50;64.35;;;;;;;8.43;66.53;102876.66;5033225;28;20486;-71
2024/01/25 10:08:52;;;;;;;63.13;59.60;;;;;;;8.44;66.50;102874.78;5032476;28;20026;-71
2024/01/25 10:11:17;;;;;;;62.53;58.70;;;;;;;8.45;66.50;102860.34;5032288;28;20030;-73
2024/01/25 10:13:47;;;;;;;64.72;61.25;;;;;;;8.44;66.59;102864.88;5036249;28;20033;-73
2024/01/25 10:16:19;;;;;;;62.03;58.92;;;;;;;8.43;66.59;102863.19;5035325;28;20103;-72
2024/01/25 10:18:48;;;;;;;65.18;61.30;;;;;;;8.44;66.64;102853.25;5032434;28;20033;-72
2024/01/25 10:21:16;;;;;;;62.22;57.95;;;;;;;8.43;66.52;102854.28;5048251;28;20033;-71
2024/01/25 10:23:45;;;;;;;63.33;58.75;;;;;;;8.42;66.58;102853.44;5049269;28;20057;-73
2024/01/25 10:26:10;;;;;;;;;;;;;;;8.43;66.76;102848.91;5041142;28;20091;-73
2024/01/25 10:28:36;;;;;;;61.63;56.97;;;;;;;8.42;66.60;102849.94;5052884;28;19912;-72
2024/01/25 10:31:04;;;;;;;55.53;51.83;;;;;;;8.43;66.56;102851.59;5041498;28;20029;-76
2024/01/25 10:33:30;;;;;;;63.87;59.17;;;;;;;8.42;66.62;102848.06;5040334;28;20116;-72
2024/01/25 10:36:01;;;;;;;57.55;54.85;;;;;;;8.43;66.59;102835.44;5036278;28;20029;-73
2024/01/25 10:38:32;;;;;;;57.78;53.47;;;;;;;8.43;66.56;102838.13;5037552;28;20033;-72
2024/01/25 10:41:03;;;;;;;58.10;54.22;;;;;;;8.44;66.50;102839.78;5047300;28;20091;-73
2024/01/25 10:43:30;;;;;;;63.22;59.67;;;;;;;8.43;66.77;102835.44;5039147;28;20052;-74
2024/01/25 10:45:58;;;;;;;66.90;62.28;;;;;;;8.45;66.74;102846.88;5036447;28;20060;-72
2024/01/25 10:48:25;;;;;;;56.45;53.25;;;;;;;8.44;66.85;102854.13;5040307;28;20032;-72
2024/01/25 10:50:51;;;;;;;60.28;57.05;;;;;;;8.45;66.74;102854.94;5044588;28;20160;-73
2024/01/25 10:53:17;;;;;;;66.97;61.78;;;;;;;8.46;66.83;102853.91;5032777;28;20117;-73
2024/01/25 10:55:42;;;;;;;58.60;55.20;;;;;;;8.47;66.80;102850.22;5049760;28;20037;-72
2024/01/25 10:58:10;;;;;;;62.65;59.20;;;;;;;8.48;66.83;102837.59;5051095;28;20044;-72
2024/01/25 11:00:36;;;;;;;59.23;55.70;;;;;;;8.48;66.78;102824.13;5034701;28;20041;-73
2024/01/25 11:03:05;;;;;;;65.15;61.05;;;;;;;8.48;66.76;102814.19;5035793;28;20432;-73
2024/01/25 11:05:31;;;;;;;62.67;58.30;;;;;;;8.49;66.92;102815.84;5038062;28;20072;-71
2024/01/25 11:07:57;;;;;;;63.70;60.47;;;;;;;8.50;66.88;102811.34;5039458;28;20041;-71